sensor_id;sensor_type;location;lat;lon;timestamp;P1;durP1;ratioP1;P2;durP2;ratioP2
8622;SDS011;4349;47.552;8.904;2023-12-28T00:00:50;11.10;;;10.00;;
8622;SDS011;4349;47.552;8.904;2023-12-28T00:03:17;10.90;;;10.00;;
8622;SDS011;4349;47.552;8.904;2023-12-28T00:05:45;11.23;;;9.63;;
8622;SDS011;4349;47.552;8.904;2023-12-28T00:08:13;10.40;;;9.40;;
8622;SDS011;4349;47.552;8.904;2023-12-28T00:10:42;11.50;;;9.13;;
8622;SDS011;4349;47.552;8.904;2023-12-28T00:13:09;10.73;;;9.67;;
8622;SDS011;4349;47.552;8.904;2023-12-28T00:15:37;10.93;;;9.73;;
8622;SDS011;4349;47.552;8.904;2023-12-28T00:18:05;10.33;;;9.33;;
8622;SDS011;4349;47.552;8.904;2023-12-28T00:20:33;10.53;;;9.50;;
8622;SDS011;4349;47.552;8.904;2023-12-28T00:23:00;10.90;;;9.90;;
8622;SDS011;4349;47.552;8.904;2023-12-28T00:25:28;11.50;;;9.57;;
8622;SDS011;4349;47.552;8.904;2023-12-28T00:27:57;11.00;;;9.87;;
8622;SDS011;4349;47.552;8.904;2023-12-28T00:30:25;11.13;;;10.07;;
8622;SDS011;4349;47.552;8.904;2023-12-28T00:32:52;11.13;;;9.97;;
8622;SDS011;4349;47.552;8.904;2023-12-28T00:35:20;11.10;;;10.00;;
8622;SDS011;4349;47.552;8.904;2023-12-28T00:37:48;10.40;;;9.27;;
8622;SDS011;4349;47.552;8.904;2023-12-28T00:40:16;12.57;;;10.43;;
8622;SDS011;4349;47.552;8.904;2023-12-28T00:42:43;11.70;;;10.10;;
8622;SDS011;4349;47.552;8.904;2023-12-28T00:45:13;10.33;;;9.33;;
8622;SDS011;4349;47.552;8.904;2023-12-28T00:47:40;12.20;;;9.53;;
8622;SDS011;4349;47.552;8.904;2023-12-28T00:50:09;10.47;;;9.37;;
8622;SDS011;4349;47.552;8.904;2023-12-28T00:52:38;13.10;;;10.13;;
8622;SDS011;4349;47.552;8.904;2023-12-28T00:55:06;10.80;;;9.77;;
8622;SDS011;4349;47.552;8.904;2023-12-28T00:57:35;10.43;;;9.43;;
8622;SDS011;4349;47.552;8.904;2023-12-28T01:00:02;11.00;;;9.83;;
8622;SDS011;4349;47.552;8.904;2023-12-28T01:02:32;12.47;;;9.97;;
8622;SDS011;4349;47.552;8.904;2023-12-28T01:04:59;11.37;;;10.27;;
8622;SDS011;4349;47.552;8.904;2023-12-28T01:07:27;11.73;;;10.50;;
8622;SDS011;4349;47.552;8.904;2023-12-28T01:09:54;13.03;;;11.67;;
8622;SDS011;4349;47.552;8.904;2023-12-28T01:12:23;13.57;;;11.20;;
8622;SDS011;4349;47.552;8.904;2023-12-28T01:14:52;13.83;;;11.13;;
8622;SDS011;4349;47.552;8.904;2023-12-28T01:17:19;11.90;;;10.70;;
8622;SDS011;4349;47.552;8.904;2023-12-28T01:19:48;14.07;;;11.30;;
8622;SDS011;4349;47.552;8.904;2023-12-28T01:22:16;12.00;;;10.73;;
8622;SDS011;4349;47.552;8.904;2023-12-28T01:24:45;12.00;;;10.67;;
8622;SDS011;4349;47.552;8.904;2023-12-28T01:27:13;10.30;;;9.27;;
8622;SDS011;4349;47.552;8.904;2023-12-28T01:29:41;9.77;;;8.87;;
8622;SDS011;4349;47.552;8.904;2023-12-28T01:32:09;9.10;;;8.30;;
8622;SDS011;4349;47.552;8.904;2023-12-28T01:34:36;9.77;;;8.80;;
8622;SDS011;4349;47.552;8.904;2023-12-28T01:37:05;8.87;;;8.17;;
8622;SDS011;4349;47.552;8.904;2023-12-28T01:39:34;8.10;;;7.40;;
8622;SDS011;4349;47.552;8.904;2023-12-28T01:42:01;7.13;;;6.53;;
8622;SDS011;4349;47.552;8.904;2023-12-28T01:44:30;6.77;;;6.27;;
8622;SDS011;4349;47.552;8.904;2023-12-28T01:46:58;7.63;;;6.93;;
8622;SDS011;4349;47.552;8.904;2023-12-28T01:49:26;7.43;;;6.80;;
8622;SDS011;4349;47.552;8.904;2023-12-28T01:51:54;7.37;;;6.67;;
8622;SDS011;4349;47.552;8.904;2023-12-28T01:54:24;7.37;;;6.53;;
8622;SDS011;4349;47.552;8.904;2023-12-28T01:56:51;6.73;;;6.07;;
8622;SDS011;4349;47.552;8.904;2023-12-28T01:59:19;7.70;;;6.97;;
8622;SDS011;4349;47.552;8.904;2023-12-28T02:01:47;7.10;;;6.40;;
8622;SDS011;4349;47.552;8.904;2023-12-28T02:04:15;6.40;;;5.90;;
8622;SDS011;4349;47.552;8.904;2023-12-28T02:06:43;5.70;;;5.20;;
8622;SDS011;4349;47.552;8.904;2023-12-28T02:09:10;6.00;;;5.50;;
8622;SDS011;4349;47.552;8.904;2023-12-28T02:11:39;6.07;;;5.47;;
8622;SDS011;4349;47.552;8.904;2023-12-28T02:14:07;6.07;;;5.57;;
8622;SDS011;4349;47.552;8.904;2023-12-28T02:16:36;5.87;;;5.10;;
8622;SDS011;4349;47.552;8.904;2023-12-28T02:19:12;5.73;;;5.33;;
8622;SDS011;4349;47.552;8.904;2023-12-28T02:21:42;6.43;;;5.20;;
8622;SDS011;4349;47.552;8.904;2023-12-28T02:24:10;6.03;;;5.20;;
8622;SDS011;4349;47.552;8.904;2023-12-28T02:26:39;5.77;;;5.20;;
8622;SDS011;4349;47.552;8.904;2023-12-28T02:29:07;5.57;;;5.17;;
8622;SDS011;4349;47.552;8.904;2023-12-28T02:31:37;6.27;;;5.23;;
8622;SDS011;4349;47.552;8.904;2023-12-28T02:34:08;6.47;;;5.17;;
8622;SDS011;4349;47.552;8.904;2023-12-28T02:36:39;5.87;;;5.40;;
8622;SDS011;4349;47.552;8.904;2023-12-28T02:39:08;5.73;;;5.07;;
8622;SDS011;4349;47.552;8.904;2023-12-28T02:41:39;6.93;;;5.10;;
8622;SDS011;4349;47.552;8.904;2023-12-28T02:44:08;5.57;;;5.17;;
8622;SDS011;4349;47.552;8.904;2023-12-28T02:46:36;5.43;;;5.03;;
8622;SDS011;4349;47.552;8.904;2023-12-28T02:49:04;6.20;;;5.70;;
8622;SDS011;4349;47.552;8.904;2023-12-28T02:51:32;6.40;;;5.90;;
8622;SDS011;4349;47.552;8.904;2023-12-28T02:53:59;6.13;;;5.63;;
8622;SDS011;4349;47.552;8.904;2023-12-28T02:56:27;8.47;;;7.63;;
8622;SDS011;4349;47.552;8.904;2023-12-28T02:58:56;7.90;;;7.20;;
8622;SDS011;4349;47.552;8.904;2023-12-28T03:01:23;7.77;;;7.03;;
8622;SDS011;4349;47.552;8.904;2023-12-28T03:03:51;9.33;;;8.20;;
8622;SDS011;4349;47.552;8.904;2023-12-28T03:06:19;9.33;;;7.67;;
8622;SDS011;4349;47.552;8.904;2023-12-28T03:08:46;9.00;;;7.70;;
8622;SDS011;4349;47.552;8.904;2023-12-28T03:11:14;9.13;;;8.33;;
8622;SDS011;4349;47.552;8.904;2023-12-28T03:13:41;8.77;;;7.87;;
8622;SDS011;4349;47.552;8.904;2023-12-28T03:16:11;8.37;;;7.67;;
8622;SDS011;4349;47.552;8.904;2023-12-28T03:18:40;8.70;;;7.90;;
8622;SDS011;4349;47.552;8.904;2023-12-28T03:21:08;8.80;;;7.90;;
8622;SDS011;4349;47.552;8.904;2023-12-28T03:23:35;8.07;;;7.37;;
8622;SDS011;4349;47.552;8.904;2023-12-28T03:26:04;9.00;;;7.93;;
8622;SDS011;4349;47.552;8.904;2023-12-28T03:28:33;9.00;;;8.20;;
8622;SDS011;4349;47.552;8.904;2023-12-28T03:31:01;14.27;;;7.90;;
8622;SDS011;4349;47.552;8.904;2023-12-28T03:33:31;8.30;;;7.60;;
8622;SDS011;4349;47.552;8.904;2023-12-28T03:35:58;7.23;;;6.60;;
8622;SDS011;4349;47.552;8.904;2023-12-28T03:38:27;7.23;;;6.63;;
8622;SDS011;4349;47.552;8.904;2023-12-28T03:40:55;7.27;;;6.67;;
8622;SDS011;4349;47.552;8.904;2023-12-28T03:43:22;7.30;;;6.63;;
8622;SDS011;4349;47.552;8.904;2023-12-28T03:45:50;6.77;;;6.27;;
8622;SDS011;4349;47.552;8.904;2023-12-28T03:48:18;7.03;;;6.43;;
8622;SDS011;4349;47.552;8.904;2023-12-28T03:50:47;6.53;;;6.03;;
8622;SDS011;4349;47.552;8.904;2023-12-28T03:53:14;7.40;;;6.80;;
8622;SDS011;4349;47.552;8.904;2023-12-28T03:55:42;7.53;;;6.93;;
8622;SDS011;4349;47.552;8.904;2023-12-28T03:58:09;6.53;;;5.90;;
8622;SDS011;4349;47.552;8.904;2023-12-28T04:00:37;6.87;;;6.17;;
8622;SDS011;4349;47.552;8.904;2023-12-28T04:03:05;6.83;;;6.33;;
8622;SDS011;4349;47.552;8.904;2023-12-28T04:05:32;7.27;;;6.67;;
8622;SDS011;4349;47.552;8.904;2023-12-28T04:08:01;6.97;;;6.37;;
8622;SDS011;4349;47.552;8.904;2023-12-28T04:10:29;6.97;;;6.37;;
8622;SDS011;4349;47.552;8.904;2023-12-28T04:12:57;7.10;;;6.40;;
8622;SDS011;4349;47.552;8.904;2023-12-28T04:15:25;6.37;;;5.87;;
8622;SDS011;4349;47.552;8.904;2023-12-28T04:17:53;6.13;;;5.63;;
8622;SDS011;4349;47.552;8.904;2023-12-28T04:20:21;6.13;;;5.63;;
8622;SDS011;4349;47.552;8.904;2023-12-28T04:22:49;6.30;;;5.70;;
8622;SDS011;4349;47.552;8.904;2023-12-28T04:25:18;6.43;;;5.90;;
8622;SDS011;4349;47.552;8.904;2023-12-28T04:27:47;6.20;;;5.70;;
8622;SDS011;4349;47.552;8.904;2023-12-28T04:30:15;6.13;;;5.60;;
8622;SDS011;4349;47.552;8.904;2023-12-28T04:32:43;5.73;;;5.20;;
8622;SDS011;4349;47.552;8.904;2023-12-28T04:35:11;5.77;;;5.27;;
8622;SDS011;4349;47.552;8.904;2023-12-28T04:37:39;5.73;;;5.30;;
8622;SDS011;4349;47.552;8.904;2023-12-28T04:40:07;5.70;;;5.30;;
8622;SDS011;4349;47.552;8.904;2023-12-28T04:42:36;5.23;;;4.93;;
8622;SDS011;4349;47.552;8.904;2023-12-28T04:45:04;6.47;;;5.77;;
8622;SDS011;4349;47.552;8.904;2023-12-28T04:47:32;4.50;;;4.20;;
8622;SDS011;4349;47.552;8.904;2023-12-28T04:49:59;4.87;;;4.57;;
8622;SDS011;4349;47.552;8.904;2023-12-28T04:52:27;5.10;;;4.77;;
8622;SDS011;4349;47.552;8.904;2023-12-28T04:54:55;4.40;;;4.20;;
8622;SDS011;4349;47.552;8.904;2023-12-28T04:57:22;5.27;;;4.87;;
8622;SDS011;4349;47.552;8.904;2023-12-28T04:59:53;4.80;;;4.50;;
8622;SDS011;4349;47.552;8.904;2023-12-28T05:02:21;4.53;;;4.23;;
8622;SDS011;4349;47.552;8.904;2023-12-28T05:04:48;4.83;;;4.17;;
8622;SDS011;4349;47.552;8.904;2023-12-28T05:07:18;4.63;;;4.30;;
8622;SDS011;4349;47.552;8.904;2023-12-28T05:09:45;4.10;;;3.90;;
8622;SDS011;4349;47.552;8.904;2023-12-28T05:12:13;4.60;;;4.20;;
8622;SDS011;4349;47.552;8.904;2023-12-28T05:14:41;4.20;;;3.93;;
8622;SDS011;4349;47.552;8.904;2023-12-28T05:17:10;4.97;;;4.60;;
8622;SDS011;4349;47.552;8.904;2023-12-28T05:19:37;4.87;;;4.53;;
8622;SDS011;4349;47.552;8.904;2023-12-28T05:22:05;4.77;;;4.47;;
8622;SDS011;4349;47.552;8.904;2023-12-28T05:24:37;5.80;;;5.07;;
8622;SDS011;4349;47.552;8.904;2023-12-28T05:27:04;4.70;;;4.40;;
8622;SDS011;4349;47.552;8.904;2023-12-28T05:29:32;4.80;;;4.50;;
8622;SDS011;4349;47.552;8.904;2023-12-28T05:31:59;4.97;;;4.67;;
8622;SDS011;4349;47.552;8.904;2023-12-28T05:34:28;4.83;;;4.43;;
8622;SDS011;4349;47.552;8.904;2023-12-28T05:36:56;4.73;;;4.43;;
8622;SDS011;4349;47.552;8.904;2023-12-28T05:39:24;5.17;;;4.77;;
8622;SDS011;4349;47.552;8.904;2023-12-28T05:41:51;5.20;;;4.70;;
8622;SDS011;4349;47.552;8.904;2023-12-28T05:44:19;4.70;;;4.40;;
8622;SDS011;4349;47.552;8.904;2023-12-28T05:46:47;6.37;;;5.73;;
8622;SDS011;4349;47.552;8.904;2023-12-28T05:49:14;5.50;;;5.00;;
8622;SDS011;4349;47.552;8.904;2023-12-28T05:51:43;5.03;;;4.53;;
8622;SDS011;4349;47.552;8.904;2023-12-28T05:54:11;5.17;;;4.77;;
8622;SDS011;4349;47.552;8.904;2023-12-28T05:56:39;5.10;;;4.70;;
8622;SDS011;4349;47.552;8.904;2023-12-28T05:59:06;4.80;;;4.40;;
8622;SDS011;4349;47.552;8.904;2023-12-28T06:01:40;4.70;;;4.30;;
8622;SDS011;4349;47.552;8.904;2023-12-28T06:04:08;5.10;;;4.70;;
8622;SDS011;4349;47.552;8.904;2023-12-28T06:06:36;5.17;;;4.70;;
8622;SDS011;4349;47.552;8.904;2023-12-28T06:09:05;5.60;;;4.23;;
8622;SDS011;4349;47.552;8.904;2023-12-28T06:11:33;4.50;;;4.20;;
8622;SDS011;4349;47.552;8.904;2023-12-28T06:14:01;4.60;;;4.33;;
8622;SDS011;4349;47.552;8.904;2023-12-28T06:16:29;4.80;;;4.40;;
8622;SDS011;4349;47.552;8.904;2023-12-28T06:18:59;4.40;;;4.20;;
8622;SDS011;4349;47.552;8.904;2023-12-28T06:21:27;4.70;;;4.30;;
8622;SDS011;4349;47.552;8.904;2023-12-28T06:23:58;4.87;;;4.53;;
8622;SDS011;4349;47.552;8.904;2023-12-28T06:26:26;4.97;;;4.67;;
8622;SDS011;4349;47.552;8.904;2023-12-28T06:28:54;6.93;;;5.00;;
8622;SDS011;4349;47.552;8.904;2023-12-28T06:31:22;4.90;;;4.60;;
8622;SDS011;4349;47.552;8.904;2023-12-28T06:33:49;5.30;;;4.97;;
8622;SDS011;4349;47.552;8.904;2023-12-28T06:36:17;5.00;;;4.60;;
8622;SDS011;4349;47.552;8.904;2023-12-28T06:38:45;5.13;;;4.83;;
8622;SDS011;4349;47.552;8.904;2023-12-28T06:41:13;5.37;;;4.87;;
8622;SDS011;4349;47.552;8.904;2023-12-28T06:43:41;5.10;;;4.80;;
8622;SDS011;4349;47.552;8.904;2023-12-28T06:46:09;6.87;;;6.17;;
8622;SDS011;4349;47.552;8.904;2023-12-28T06:48:37;6.47;;;5.90;;
8622;SDS011;4349;47.552;8.904;2023-12-28T06:51:07;6.40;;;5.83;;
8622;SDS011;4349;47.552;8.904;2023-12-28T06:53:34;6.80;;;6.20;;
8622;SDS011;4349;47.552;8.904;2023-12-28T06:56:02;7.70;;;6.80;;
8622;SDS011;4349;47.552;8.904;2023-12-28T06:58:29;8.13;;;7.30;;
8622;SDS011;4349;47.552;8.904;2023-12-28T07:00:58;7.43;;;6.83;;
8622;SDS011;4349;47.552;8.904;2023-12-28T07:03:26;7.23;;;6.53;;
8622;SDS011;4349;47.552;8.904;2023-12-28T07:05:56;8.63;;;7.83;;
8622;SDS011;4349;47.552;8.904;2023-12-28T07:08:24;7.90;;;7.20;;
8622;SDS011;4349;47.552;8.904;2023-12-28T07:10:52;9.33;;;8.43;;
8622;SDS011;4349;47.552;8.904;2023-12-28T07:13:19;10.37;;;9.37;;
8622;SDS011;4349;47.552;8.904;2023-12-28T07:15:47;9.67;;;8.77;;
8622;SDS011;4349;47.552;8.904;2023-12-28T07:18:16;9.23;;;8.33;;
8622;SDS011;4349;47.552;8.904;2023-12-28T07:20:43;10.57;;;9.37;;
8622;SDS011;4349;47.552;8.904;2023-12-28T07:23:11;11.13;;;10.00;;
8622;SDS011;4349;47.552;8.904;2023-12-28T07:25:39;10.93;;;9.80;;
8622;SDS011;4349;47.552;8.904;2023-12-28T07:28:07;10.87;;;9.87;;
8622;SDS011;4349;47.552;8.904;2023-12-28T07:30:35;11.33;;;10.17;;
8622;SDS011;4349;47.552;8.904;2023-12-28T07:33:04;10.37;;;9.37;;
8622;SDS011;4349;47.552;8.904;2023-12-28T07:35:33;9.40;;;8.50;;
8622;SDS011;4349;47.552;8.904;2023-12-28T07:38:00;9.33;;;8.43;;
8622;SDS011;4349;47.552;8.904;2023-12-28T07:40:28;9.83;;;8.27;;
8622;SDS011;4349;47.552;8.904;2023-12-28T07:42:56;9.57;;;8.67;;
8622;SDS011;4349;47.552;8.904;2023-12-28T07:45:24;9.47;;;8.63;;
8622;SDS011;4349;47.552;8.904;2023-12-28T07:47:51;9.17;;;8.37;;
8622;SDS011;4349;47.552;8.904;2023-12-28T07:50:19;12.87;;;8.13;;
8622;SDS011;4349;47.552;8.904;2023-12-28T07:52:48;10.53;;;8.77;;
8622;SDS011;4349;47.552;8.904;2023-12-28T07:55:16;9.43;;;8.43;;
8622;SDS011;4349;47.552;8.904;2023-12-28T07:57:44;10.30;;;9.20;;
8622;SDS011;4349;47.552;8.904;2023-12-28T08:00:12;9.93;;;9.03;;
8622;SDS011;4349;47.552;8.904;2023-12-28T08:02:39;10.20;;;8.87;;
8622;SDS011;4349;47.552;8.904;2023-12-28T08:05:07;10.93;;;8.97;;
8622;SDS011;4349;47.552;8.904;2023-12-28T08:07:35;9.90;;;9.00;;
8622;SDS011;4349;47.552;8.904;2023-12-28T08:10:05;9.33;;;8.43;;
8622;SDS011;4349;47.552;8.904;2023-12-28T08:12:33;9.87;;;8.03;;
8622;SDS011;4349;47.552;8.904;2023-12-28T08:15:00;9.30;;;8.40;;
8622;SDS011;4349;47.552;8.904;2023-12-28T08:17:28;8.97;;;8.07;;
8622;SDS011;4349;47.552;8.904;2023-12-28T08:19:56;9.40;;;8.47;;
8622;SDS011;4349;47.552;8.904;2023-12-28T08:22:23;9.63;;;8.73;;
8622;SDS011;4349;47.552;8.904;2023-12-28T08:24:51;11.50;;;9.77;;
8622;SDS011;4349;47.552;8.904;2023-12-28T08:27:20;11.37;;;9.37;;
8622;SDS011;4349;47.552;8.904;2023-12-28T08:29:48;11.37;;;10.13;;
8622;SDS011;4349;47.552;8.904;2023-12-28T08:32:15;11.97;;;10.10;;
8622;SDS011;4349;47.552;8.904;2023-12-28T08:34:43;10.93;;;9.53;;
8622;SDS011;4349;47.552;8.904;2023-12-28T08:37:11;9.83;;;8.83;;
8622;SDS011;4349;47.552;8.904;2023-12-28T08:39:39;10.73;;;9.60;;
8622;SDS011;4349;47.552;8.904;2023-12-28T08:42:07;11.40;;;9.93;;
8622;SDS011;4349;47.552;8.904;2023-12-28T08:44:36;11.10;;;9.67;;
8622;SDS011;4349;47.552;8.904;2023-12-28T08:47:03;10.00;;;9.10;;
8622;SDS011;4349;47.552;8.904;2023-12-28T08:49:31;9.80;;;8.50;;
8622;SDS011;4349;47.552;8.904;2023-12-28T08:51:59;9.53;;;8.10;;
8622;SDS011;4349;47.552;8.904;2023-12-28T08:54:27;9.50;;;8.70;;
8622;SDS011;4349;47.552;8.904;2023-12-28T08:56:54;11.23;;;9.97;;
8622;SDS011;4349;47.552;8.904;2023-12-28T08:59:25;12.90;;;11.60;;
8622;SDS011;4349;47.552;8.904;2023-12-28T09:01:54;16.77;;;11.93;;
8622;SDS011;4349;47.552;8.904;2023-12-28T09:04:22;14.93;;;12.40;;
8622;SDS011;4349;47.552;8.904;2023-12-28T09:06:49;15.67;;;12.40;;
8622;SDS011;4349;47.552;8.904;2023-12-28T09:09:17;16.57;;;12.43;;
8622;SDS011;4349;47.552;8.904;2023-12-28T09:11:45;15.13;;;12.63;;
8622;SDS011;4349;47.552;8.904;2023-12-28T09:14:12;13.50;;;11.77;;
8622;SDS011;4349;47.552;8.904;2023-12-28T09:16:40;15.37;;;12.00;;
8622;SDS011;4349;47.552;8.904;2023-12-28T09:19:10;13.60;;;11.53;;
8622;SDS011;4349;47.552;8.904;2023-12-28T09:21:38;12.80;;;11.47;;
8622;SDS011;4349;47.552;8.904;2023-12-28T09:24:05;14.17;;;11.77;;
8622;SDS011;4349;47.552;8.904;2023-12-28T09:26:33;17.27;;;14.47;;
8622;SDS011;4349;47.552;8.904;2023-12-28T09:29:01;15.17;;;13.73;;
8622;SDS011;4349;47.552;8.904;2023-12-28T09:31:29;15.83;;;14.00;;
8622;SDS011;4349;47.552;8.904;2023-12-28T09:33:57;14.17;;;12.87;;
8622;SDS011;4349;47.552;8.904;2023-12-28T09:36:26;14.80;;;12.83;;
8622;SDS011;4349;47.552;8.904;2023-12-28T09:38:53;14.00;;;12.60;;
8622;SDS011;4349;47.552;8.904;2023-12-28T09:41:22;16.67;;;13.27;;
8622;SDS011;4349;47.552;8.904;2023-12-28T09:43:53;15.10;;;13.20;;
8622;SDS011;4349;47.552;8.904;2023-12-28T09:46:23;14.77;;;12.37;;
8622;SDS011;4349;47.552;8.904;2023-12-28T09:48:52;13.23;;;11.80;;
8622;SDS011;4349;47.552;8.904;2023-12-28T09:51:23;12.03;;;10.83;;
8622;SDS011;4349;47.552;8.904;2023-12-28T09:53:53;16.57;;;13.10;;
8622;SDS011;4349;47.552;8.904;2023-12-28T09:56:21;13.37;;;12.07;;
8622;SDS011;4349;47.552;8.904;2023-12-28T09:58:49;11.27;;;10.07;;
8622;SDS011;4349;47.552;8.904;2023-12-28T10:01:18;13.80;;;11.60;;
8622;SDS011;4349;47.552;8.904;2023-12-28T10:03:46;12.03;;;10.37;;
8622;SDS011;4349;47.552;8.904;2023-12-28T10:06:13;12.57;;;10.10;;
8622;SDS011;4349;47.552;8.904;2023-12-28T10:08:46;10.70;;;9.60;;
8622;SDS011;4349;47.552;8.904;2023-12-28T10:11:15;11.17;;;10.00;;
8622;SDS011;4349;47.552;8.904;2023-12-28T10:13:43;12.27;;;10.83;;
8622;SDS011;4349;47.552;8.904;2023-12-28T10:16:11;11.27;;;10.07;;
8622;SDS011;4349;47.552;8.904;2023-12-28T10:18:40;10.13;;;9.10;;
8622;SDS011;4349;47.552;8.904;2023-12-28T10:21:08;11.63;;;8.93;;
8622;SDS011;4349;47.552;8.904;2023-12-28T10:23:36;9.87;;;8.83;;
8622;SDS011;4349;47.552;8.904;2023-12-28T10:26:04;9.60;;;8.70;;
8622;SDS011;4349;47.552;8.904;2023-12-28T10:28:34;8.87;;;7.97;;
8622;SDS011;4349;47.552;8.904;2023-12-28T10:31:03;11.97;;;8.57;;
8622;SDS011;4349;47.552;8.904;2023-12-28T10:33:34;10.57;;;9.47;;
8622;SDS011;4349;47.552;8.904;2023-12-28T10:36:03;10.63;;;9.30;;
8622;SDS011;4349;47.552;8.904;2023-12-28T10:38:34;11.83;;;9.83;;
8622;SDS011;4349;47.552;8.904;2023-12-28T10:41:03;12.37;;;11.07;;
8622;SDS011;4349;47.552;8.904;2023-12-28T10:43:31;16.47;;;13.57;;
8622;SDS011;4349;47.552;8.904;2023-12-28T10:46:05;18.20;;;15.07;;
8622;SDS011;4349;47.552;8.904;2023-12-28T10:48:34;15.90;;;12.73;;
8622;SDS011;4349;47.552;8.904;2023-12-28T10:51:06;12.33;;;11.13;;
8622;SDS011;4349;47.552;8.904;2023-12-28T10:53:37;14.73;;;11.30;;
8622;SDS011;4349;47.552;8.904;2023-12-28T10:56:09;14.77;;;12.17;;
8622;SDS011;4349;47.552;8.904;2023-12-28T10:58:39;14.40;;;11.87;;
8622;SDS011;4349;47.552;8.904;2023-12-28T11:01:11;14.47;;;11.70;;
8622;SDS011;4349;47.552;8.904;2023-12-28T11:03:39;15.50;;;12.03;;
8622;SDS011;4349;47.552;8.904;2023-12-28T11:06:08;13.33;;;11.83;;
8622;SDS011;4349;47.552;8.904;2023-12-28T11:08:36;15.70;;;13.57;;
8622;SDS011;4349;47.552;8.904;2023-12-28T11:11:05;16.27;;;14.57;;
8622;SDS011;4349;47.552;8.904;2023-12-28T11:13:33;15.27;;;12.33;;
8622;SDS011;4349;47.552;8.904;2023-12-28T11:16:02;13.03;;;10.90;;
8622;SDS011;4349;47.552;8.904;2023-12-28T11:18:32;14.00;;;11.63;;
8622;SDS011;4349;47.552;8.904;2023-12-28T11:21:00;17.37;;;13.70;;
8622;SDS011;4349;47.552;8.904;2023-12-28T11:23:27;13.70;;;11.60;;
8622;SDS011;4349;47.552;8.904;2023-12-28T11:25:55;14.27;;;11.50;;
8622;SDS011;4349;47.552;8.904;2023-12-28T11:28:23;13.53;;;11.47;;
8622;SDS011;4349;47.552;8.904;2023-12-28T11:30:51;13.70;;;11.07;;
8622;SDS011;4349;47.552;8.904;2023-12-28T11:33:19;16.53;;;12.10;;
8622;SDS011;4349;47.552;8.904;2023-12-28T11:35:48;13.63;;;11.63;;
8622;SDS011;4349;47.552;8.904;2023-12-28T11:38:16;12.40;;;11.17;;
8622;SDS011;4349;47.552;8.904;2023-12-28T11:40:45;13.00;;;11.60;;
8622;SDS011;4349;47.552;8.904;2023-12-28T11:43:20;14.93;;;12.80;;
8622;SDS011;4349;47.552;8.904;2023-12-28T11:45:48;12.53;;;11.33;;
8622;SDS011;4349;47.552;8.904;2023-12-28T11:48:23;13.00;;;11.60;;
8622;SDS011;4349;47.552;8.904;2023-12-28T11:50:55;16.70;;;11.90;;
8622;SDS011;4349;47.552;8.904;2023-12-28T11:53:24;16.07;;;12.43;;
8622;SDS011;4349;47.552;8.904;2023-12-28T11:55:52;16.20;;;12.97;;
8622;SDS011;4349;47.552;8.904;2023-12-28T11:58:27;13.13;;;11.73;;
8622;SDS011;4349;47.552;8.904;2023-12-28T12:00:54;14.37;;;11.77;;
8622;SDS011;4349;47.552;8.904;2023-12-28T12:03:24;14.43;;;12.23;;
8622;SDS011;4349;47.552;8.904;2023-12-28T12:05:52;14.00;;;12.50;;
8622;SDS011;4349;47.552;8.904;2023-12-28T12:08:21;14.33;;;12.93;;
8622;SDS011;4349;47.552;8.904;2023-12-28T12:10:59;18.47;;;14.53;;
8622;SDS011;4349;47.552;8.904;2023-12-28T12:13:26;16.23;;;14.27;;
8622;SDS011;4349;47.552;8.904;2023-12-28T12:15:54;15.33;;;13.60;;
8622;SDS011;4349;47.552;8.904;2023-12-28T12:18:23;14.93;;;13.07;;
8622;SDS011;4349;47.552;8.904;2023-12-28T12:20:51;14.30;;;12.60;;
8622;SDS011;4349;47.552;8.904;2023-12-28T12:23:19;14.77;;;12.77;;
8622;SDS011;4349;47.552;8.904;2023-12-28T12:25:48;13.97;;;12.50;;
8622;SDS011;4349;47.552;8.904;2023-12-28T12:28:15;12.97;;;11.67;;
8622;SDS011;4349;47.552;8.904;2023-12-28T12:30:48;15.20;;;11.63;;
8622;SDS011;4349;47.552;8.904;2023-12-28T12:33:17;12.53;;;10.73;;
8622;SDS011;4349;47.552;8.904;2023-12-28T12:35:45;13.00;;;10.53;;
8622;SDS011;4349;47.552;8.904;2023-12-28T12:38:13;11.97;;;10.77;;
8622;SDS011;4349;47.552;8.904;2023-12-28T12:40:40;12.57;;;11.27;;
8622;SDS011;4349;47.552;8.904;2023-12-28T12:43:09;12.70;;;11.30;;
8622;SDS011;4349;47.552;8.904;2023-12-28T12:45:37;14.90;;;12.73;;
8622;SDS011;4349;47.552;8.904;2023-12-28T12:48:05;12.47;;;11.17;;
8622;SDS011;4349;47.552;8.904;2023-12-28T12:50:33;14.43;;;11.20;;
8622;SDS011;4349;47.552;8.904;2023-12-28T12:53:01;15.90;;;14.10;;
8622;SDS011;4349;47.552;8.904;2023-12-28T12:55:29;16.23;;;13.67;;
8622;SDS011;4349;47.552;8.904;2023-12-28T12:57:57;17.97;;;15.07;;
8622;SDS011;4349;47.552;8.904;2023-12-28T13:00:27;15.80;;;12.70;;
8622;SDS011;4349;47.552;8.904;2023-12-28T13:02:55;17.13;;;14.53;;
8622;SDS011;4349;47.552;8.904;2023-12-28T13:05:23;14.03;;;12.23;;
8622;SDS011;4349;47.552;8.904;2023-12-28T13:07:51;15.13;;;11.77;;
8622;SDS011;4349;47.552;8.904;2023-12-28T13:10:19;10.40;;;9.40;;
8622;SDS011;4349;47.552;8.904;2023-12-28T13:12:46;10.60;;;9.00;;
8622;SDS011;4349;47.552;8.904;2023-12-28T13:15:14;10.20;;;7.83;;
8622;SDS011;4349;47.552;8.904;2023-12-28T13:17:43;9.87;;;8.30;;
8622;SDS011;4349;47.552;8.904;2023-12-28T13:20:11;9.53;;;7.90;;
8622;SDS011;4349;47.552;8.904;2023-12-28T13:22:38;9.57;;;8.27;;
8622;SDS011;4349;47.552;8.904;2023-12-28T13:25:06;8.60;;;7.67;;
8622;SDS011;4349;47.552;8.904;2023-12-28T13:27:34;9.00;;;8.10;;
8622;SDS011;4349;47.552;8.904;2023-12-28T13:30:01;9.80;;;8.17;;
8622;SDS011;4349;47.552;8.904;2023-12-28T13:32:29;12.57;;;7.57;;
8622;SDS011;4349;47.552;8.904;2023-12-28T13:34:58;7.87;;;7.07;;
8622;SDS011;4349;47.552;8.904;2023-12-28T13:37:29;8.87;;;7.10;;
8622;SDS011;4349;47.552;8.904;2023-12-28T13:39:56;7.47;;;6.77;;
8622;SDS011;4349;47.552;8.904;2023-12-28T13:42:24;6.73;;;5.93;;
8622;SDS011;4349;47.552;8.904;2023-12-28T13:44:52;5.43;;;5.00;;
8622;SDS011;4349;47.552;8.904;2023-12-28T13:47:19;5.77;;;5.27;;
8622;SDS011;4349;47.552;8.904;2023-12-28T13:49:47;5.57;;;5.17;;
8622;SDS011;4349;47.552;8.904;2023-12-28T13:52:16;6.63;;;5.93;;
8622;SDS011;4349;47.552;8.904;2023-12-28T13:54:43;6.40;;;5.80;;
8622;SDS011;4349;47.552;8.904;2023-12-28T13:57:12;6.80;;;5.83;;
8622;SDS011;4349;47.552;8.904;2023-12-28T13:59:40;8.17;;;5.60;;
8622;SDS011;4349;47.552;8.904;2023-12-28T14:02:07;8.50;;;5.60;;
8622;SDS011;4349;47.552;8.904;2023-12-28T14:04:35;5.70;;;5.20;;
8622;SDS011;4349;47.552;8.904;2023-12-28T14:07:03;5.37;;;4.57;;
8622;SDS011;4349;47.552;8.904;2023-12-28T14:09:32;4.20;;;3.93;;
8622;SDS011;4349;47.552;8.904;2023-12-28T14:12:02;3.67;;;3.47;;
8622;SDS011;4349;47.552;8.904;2023-12-28T14:14:30;4.30;;;4.00;;
8622;SDS011;4349;47.552;8.904;2023-12-28T14:16:57;3.77;;;3.47;;
8622;SDS011;4349;47.552;8.904;2023-12-28T14:19:25;3.83;;;3.47;;
8622;SDS011;4349;47.552;8.904;2023-12-28T14:21:53;3.90;;;3.60;;
8622;SDS011;4349;47.552;8.904;2023-12-28T14:24:21;4.47;;;3.97;;
8622;SDS011;4349;47.552;8.904;2023-12-28T14:26:49;4.03;;;3.73;;
8622;SDS011;4349;47.552;8.904;2023-12-28T14:29:18;4.10;;;3.77;;
8622;SDS011;4349;47.552;8.904;2023-12-28T14:31:46;4.30;;;4.00;;
8622;SDS011;4349;47.552;8.904;2023-12-28T14:34:14;3.50;;;3.20;;
8622;SDS011;4349;47.552;8.904;2023-12-28T14:36:43;9.40;;;8.57;;
8622;SDS011;4349;47.552;8.904;2023-12-28T14:39:15;12.97;;;11.67;;
8622;SDS011;4349;47.552;8.904;2023-12-28T14:41:45;10.57;;;9.13;;
8622;SDS011;4349;47.552;8.904;2023-12-28T14:44:14;10.07;;;8.77;;
8622;SDS011;4349;47.552;8.904;2023-12-28T14:46:42;8.83;;;8.03;;
8622;SDS011;4349;47.552;8.904;2023-12-28T14:49:10;8.47;;;7.50;;
8622;SDS011;4349;47.552;8.904;2023-12-28T14:51:38;10.03;;;7.50;;
8622;SDS011;4349;47.552;8.904;2023-12-28T14:54:05;8.30;;;7.53;;
8622;SDS011;4349;47.552;8.904;2023-12-28T14:56:33;8.53;;;7.73;;
8622;SDS011;4349;47.552;8.904;2023-12-28T14:59:15;9.77;;;7.80;;
8622;SDS011;4349;47.552;8.904;2023-12-28T15:01:42;12.43;;;9.97;;
8622;SDS011;4349;47.552;8.904;2023-12-28T15:04:10;14.73;;;10.17;;
8622;SDS011;4349;47.552;8.904;2023-12-28T15:06:38;11.40;;;9.73;;
8622;SDS011;4349;47.552;8.904;2023-12-28T15:09:05;11.43;;;10.23;;
8622;SDS011;4349;47.552;8.904;2023-12-28T15:11:35;9.30;;;7.70;;